sensor_id;sensor_type;location;lat;lon;timestamp;P1;durP1;ratioP1;P2;durP2;ratioP2
15526;SDS011;7865;50.918;4.510;2022-12-07T00:04:45;13.97;;;8.77;;
15526;SDS011;7865;50.918;4.510;2022-12-07T00:09:47;16.90;;;9.23;;
15526;SDS011;7865;50.918;4.510;2022-12-07T00:14:49;15.67;;;8.30;;
15526;SDS011;7865;50.918;4.510;2022-12-07T00:19:51;13.30;;;8.83;;
15526;SDS011;7865;50.918;4.510;2022-12-07T00:24:53;15.47;;;9.57;;
15526;SDS011;7865;50.918;4.510;2022-12-07T00:29:55;17.97;;;9.90;;
15526;SDS011;7865;50.918;4.510;2022-12-07T00:34:56;18.13;;;9.40;;
15526;SDS011;7865;50.918;4.510;2022-12-07T00:39:58;18.07;;;10.63;;
15526;SDS011;7865;50.918;4.510;2022-12-07T00:45:01;16.13;;;10.70;;
15526;SDS011;7865;50.918;4.510;2022-12-07T00:50:02;17.13;;;10.50;;
15526;SDS011;7865;50.918;4.510;2022-12-07T00:55:05;15.60;;;9.63;;
15526;SDS011;7865;50.918;4.510;2022-12-07T01:00:07;20.87;;;10.13;;
15526;SDS011;7865;50.918;4.510;2022-12-07T01:05:09;19.37;;;10.77;;
15526;SDS011;7865;50.918;4.510;2022-12-07T01:10:11;16.07;;;9.83;;
15526;SDS011;7865;50.918;4.510;2022-12-07T01:15:14;17.77;;;10.53;;
15526;SDS011;7865;50.918;4.510;2022-12-07T01:20:16;15.93;;;10.10;;
15526;SDS011;7865;50.918;4.510;2022-12-07T01:25:18;17.60;;;9.17;;
15526;SDS011;7865;50.918;4.510;2022-12-07T01:30:20;17.30;;;11.23;;
15526;SDS011;7865;50.918;4.510;2022-12-07T01:35:23;16.03;;;10.47;;
15526;SDS011;7865;50.918;4.510;2022-12-07T01:40:25;15.67;;;10.60;;
15526;SDS011;7865;50.918;4.510;2022-12-07T01:50:32;19.77;;;10.67;;
15526;SDS011;7865;50.918;4.510;2022-12-07T01:55:35;18.70;;;11.53;;
15526;SDS011;7865;50.918;4.510;2022-12-07T02:00:40;19.07;;;11.17;;
15526;SDS011;7865;50.918;4.510;2022-12-07T02:05:43;20.47;;;11.63;;
15526;SDS011;7865;50.918;4.510;2022-12-07T02:10:46;15.73;;;11.57;;
15526;SDS011;7865;50.918;4.510;2022-12-07T02:15:55;17.60;;;10.37;;
15526;SDS011;7865;50.918;4.510;2022-12-07T02:21:41;19.10;;;11.20;;
15526;SDS011;7865;50.918;4.510;2022-12-07T02:27:09;18.07;;;10.67;;
15526;SDS011;7865;50.918;4.510;2022-12-07T02:42:47;15.30;;;9.17;;
15526;SDS011;7865;50.918;4.510;2022-12-07T02:47:55;17.27;;;9.53;;
15526;SDS011;7865;50.918;4.510;2022-12-07T02:53:00;16.23;;;10.97;;
15526;SDS011;7865;50.918;4.510;2022-12-07T02:58:27;16.70;;;9.60;;
15526;SDS011;7865;50.918;4.510;2022-12-07T03:03:29;17.17;;;9.57;;
15526;SDS011;7865;50.918;4.510;2022-12-07T03:08:42;16.63;;;10.00;;
15526;SDS011;7865;50.918;4.510;2022-12-07T03:14:00;15.03;;;9.17;;
15526;SDS011;7865;50.918;4.510;2022-12-07T03:19:10;15.30;;;9.47;;
15526;SDS011;7865;50.918;4.510;2022-12-07T03:24:21;17.43;;;10.40;;
15526;SDS011;7865;50.918;4.510;2022-12-07T03:29:30;17.23;;;10.33;;
15526;SDS011;7865;50.918;4.510;2022-12-07T03:34:37;14.07;;;9.73;;
15526;SDS011;7865;50.918;4.510;2022-12-07T03:39:58;14.17;;;9.53;;
15526;SDS011;7865;50.918;4.510;2022-12-07T03:45:04;14.50;;;9.37;;
15526;SDS011;7865;50.918;4.510;2022-12-07T03:50:10;14.03;;;9.47;;
15526;SDS011;7865;50.918;4.510;2022-12-07T03:55:22;15.67;;;9.80;;
15526;SDS011;7865;50.918;4.510;2022-12-07T04:00:29;15.97;;;9.33;;
15526;SDS011;7865;50.918;4.510;2022-12-07T04:05:31;15.07;;;9.30;;
15526;SDS011;7865;50.918;4.510;2022-12-07T04:10:33;12.47;;;9.37;;
15526;SDS011;7865;50.918;4.510;2022-12-07T04:15:35;12.17;;;8.90;;
15526;SDS011;7865;50.918;4.510;2022-12-07T04:20:37;14.23;;;9.00;;
15526;SDS011;7865;50.918;4.510;2022-12-07T04:25:39;11.73;;;7.97;;
15526;SDS011;7865;50.918;4.510;2022-12-07T04:30:41;11.53;;;7.97;;
15526;SDS011;7865;50.918;4.510;2022-12-07T04:35:43;13.07;;;8.53;;
15526;SDS011;7865;50.918;4.510;2022-12-07T04:40:45;13.10;;;8.50;;
15526;SDS011;7865;50.918;4.510;2022-12-07T04:45:47;13.60;;;9.03;;
15526;SDS011;7865;50.918;4.510;2022-12-07T04:50:50;12.27;;;8.10;;
15526;SDS011;7865;50.918;4.510;2022-12-07T04:55:51;13.87;;;9.00;;
15526;SDS011;7865;50.918;4.510;2022-12-07T05:00:54;18.80;;;10.20;;
15526;SDS011;7865;50.918;4.510;2022-12-07T05:05:56;16.47;;;9.27;;
15526;SDS011;7865;50.918;4.510;2022-12-07T05:10:59;13.40;;;8.67;;
15526;SDS011;7865;50.918;4.510;2022-12-07T05:16:01;15.03;;;9.13;;
15526;SDS011;7865;50.918;4.510;2022-12-07T05:21:04;14.33;;;9.43;;
15526;SDS011;7865;50.918;4.510;2022-12-07T05:26:06;15.73;;;10.13;;
15526;SDS011;7865;50.918;4.510;2022-12-07T05:31:07;14.53;;;9.53;;
15526;SDS011;7865;50.918;4.510;2022-12-07T05:36:10;16.27;;;9.13;;
15526;SDS011;7865;50.918;4.510;2022-12-07T05:41:12;15.60;;;9.47;;
15526;SDS011;7865;50.918;4.510;2022-12-07T05:46:35;14.43;;;9.40;;
15526;SDS011;7865;50.918;4.510;2022-12-07T05:51:37;16.17;;;10.37;;
15526;SDS011;7865;50.918;4.510;2022-12-07T05:56:39;15.20;;;9.83;;
15526;SDS011;7865;50.918;4.510;2022-12-07T06:01:41;13.60;;;9.87;;
15526;SDS011;7865;50.918;4.510;2022-12-07T06:06:43;15.97;;;9.90;;
15526;SDS011;7865;50.918;4.510;2022-12-07T06:11:46;16.33;;;9.57;;
15526;SDS011;7865;50.918;4.510;2022-12-07T06:17:07;15.10;;;9.57;;
15526;SDS011;7865;50.918;4.510;2022-12-07T06:22:09;13.63;;;9.30;;
15526;SDS011;7865;50.918;4.510;2022-12-07T06:27:12;13.13;;;8.40;;
15526;SDS011;7865;50.918;4.510;2022-12-07T06:32:15;12.93;;;9.50;;
15526;SDS011;7865;50.918;4.510;2022-12-07T06:37:17;14.00;;;9.40;;
15526;SDS011;7865;50.918;4.510;2022-12-07T06:42:19;15.40;;;8.97;;
15526;SDS011;7865;50.918;4.510;2022-12-07T06:47:20;17.60;;;9.00;;
15526;SDS011;7865;50.918;4.510;2022-12-07T06:52:41;12.13;;;9.13;;
15526;SDS011;7865;50.918;4.510;2022-12-07T06:57:43;14.10;;;9.43;;
15526;SDS011;7865;50.918;4.510;2022-12-07T07:02:45;19.37;;;9.60;;
15526;SDS011;7865;50.918;4.510;2022-12-07T07:07:48;17.83;;;9.57;;
15526;SDS011;7865;50.918;4.510;2022-12-07T07:13:10;12.43;;;8.60;;
15526;SDS011;7865;50.918;4.510;2022-12-07T07:18:12;23.07;;;9.90;;
15526;SDS011;7865;50.918;4.510;2022-12-07T07:23:14;14.30;;;9.30;;
15526;SDS011;7865;50.918;4.510;2022-12-07T07:28:16;18.40;;;9.10;;
15526;SDS011;7865;50.918;4.510;2022-12-07T07:33:18;14.20;;;8.50;;
15526;SDS011;7865;50.918;4.510;2022-12-07T07:38:20;13.60;;;8.83;;
15526;SDS011;7865;50.918;4.510;2022-12-07T07:43:22;13.33;;;8.40;;
15526;SDS011;7865;50.918;4.510;2022-12-07T07:48:24;15.57;;;8.83;;
15526;SDS011;7865;50.918;4.510;2022-12-07T07:53:26;19.13;;;10.40;;
15526;SDS011;7865;50.918;4.510;2022-12-07T07:58:28;17.20;;;8.60;;
15526;SDS011;7865;50.918;4.510;2022-12-07T08:03:30;15.90;;;10.03;;
15526;SDS011;7865;50.918;4.510;2022-12-07T08:08:32;16.87;;;8.57;;
15526;SDS011;7865;50.918;4.510;2022-12-07T08:13:35;14.60;;;9.23;;
15526;SDS011;7865;50.918;4.510;2022-12-07T08:18:38;16.60;;;9.37;;
15526;SDS011;7865;50.918;4.510;2022-12-07T08:23:40;12.07;;;7.90;;
15526;SDS011;7865;50.918;4.510;2022-12-07T08:28:42;18.73;;;9.27;;
15526;SDS011;7865;50.918;4.510;2022-12-07T08:33:47;18.27;;;10.07;;
15526;SDS011;7865;50.918;4.510;2022-12-07T08:38:49;12.97;;;9.17;;
15526;SDS011;7865;50.918;4.510;2022-12-07T08:44:11;17.63;;;10.33;;
15526;SDS011;7865;50.918;4.510;2022-12-07T08:49:17;19.03;;;11.23;;
15526;SDS011;7865;50.918;4.510;2022-12-07T08:54:23;17.07;;;10.63;;
15526;SDS011;7865;50.918;4.510;2022-12-07T08:59:26;16.90;;;10.87;;
15526;SDS011;7865;50.918;4.510;2022-12-07T09:04:29;20.07;;;9.67;;
15526;SDS011;7865;50.918;4.510;2022-12-07T09:09:31;17.83;;;9.20;;
15526;SDS011;7865;50.918;4.510;2022-12-07T09:14:33;18.03;;;10.53;;
15526;SDS011;7865;50.918;4.510;2022-12-07T09:19:35;24.03;;;11.80;;
15526;SDS011;7865;50.918;4.510;2022-12-07T09:24:37;25.90;;;10.20;;
15526;SDS011;7865;50.918;4.510;2022-12-07T09:29:39;17.33;;;10.03;;
15526;SDS011;7865;50.918;4.510;2022-12-07T09:34:41;16.87;;;8.97;;
15526;SDS011;7865;50.918;4.510;2022-12-07T09:39:43;14.47;;;8.60;;
15526;SDS011;7865;50.918;4.510;2022-12-07T09:44:50;15.03;;;8.77;;
15526;SDS011;7865;50.918;4.510;2022-12-07T09:49:53;13.17;;;7.77;;
15526;SDS011;7865;50.918;4.510;2022-12-07T09:55:01;10.57;;;7.87;;
15526;SDS011;7865;50.918;4.510;2022-12-07T10:00:26;13.13;;;8.33;;
15526;SDS011;7865;50.918;4.510;2022-12-07T10:05:36;12.90;;;8.50;;
15526;SDS011;7865;50.918;4.510;2022-12-07T10:10:41;15.10;;;8.17;;
15526;SDS011;7865;50.918;4.510;2022-12-07T10:15:45;20.57;;;10.50;;
15526;SDS011;7865;50.918;4.510;2022-12-07T10:26:19;15.73;;;10.47;;
15526;SDS011;7865;50.918;4.510;2022-12-07T10:31:41;13.33;;;8.27;;
15526;SDS011;7865;50.918;4.510;2022-12-07T10:36:44;15.27;;;11.40;;
15526;SDS011;7865;50.918;4.510;2022-12-07T10:41:53;12.07;;;8.90;;
15526;SDS011;7865;50.918;4.510;2022-12-07T11:13:52;14.20;;;7.87;;
15526;SDS011;7865;50.918;4.510;2022-12-07T11:19:54;15.10;;;7.57;;
15526;SDS011;7865;50.918;4.510;2022-12-07T11:40:49;12.53;;;7.57;;
15526;SDS011;7865;50.918;4.510;2022-12-07T11:45:58;10.20;;;6.53;;
15526;SDS011;7865;50.918;4.510;2022-12-07T11:51:04;7.47;;;4.40;;
15526;SDS011;7865;50.918;4.510;2022-12-07T11:56:12;8.23;;;4.90;;
15526;SDS011;7865;50.918;4.510;2022-12-07T12:06:43;7.03;;;4.50;;
15526;SDS011;7865;50.918;4.510;2022-12-07T12:23:05;8.40;;;4.67;;
15526;SDS011;7865;50.918;4.510;2022-12-07T12:28:57;11.00;;;4.37;;
15526;SDS011;7865;50.918;4.510;2022-12-07T12:33:51;9.20;;;5.27;;
15526;SDS011;7865;50.918;4.510;2022-12-07T12:44:00;9.20;;;4.00;;
15526;SDS011;7865;50.918;4.510;2022-12-07T12:59:30;4.60;;;2.37;;
15526;SDS011;7865;50.918;4.510;2022-12-07T13:04:38;4.03;;;1.80;;
15526;SDS011;7865;50.918;4.510;2022-12-07T13:09:50;5.37;;;2.47;;
15526;SDS011;7865;50.918;4.510;2022-12-07T13:14:56;4.30;;;1.87;;
15526;SDS011;7865;50.918;4.510;2022-12-07T13:20:00;4.83;;;2.23;;
15526;SDS011;7865;50.918;4.510;2022-12-07T13:30:33;5.23;;;2.03;;
15526;SDS011;7865;50.918;4.510;2022-12-07T13:35:46;4.90;;;1.80;;
15526;SDS011;7865;50.918;4.510;2022-12-07T13:41:01;3.97;;;1.67;;
15526;SDS011;7865;50.918;4.510;2022-12-07T13:46:06;8.80;;;1.47;;
15526;SDS011;7865;50.918;4.510;2022-12-07T13:51:16;4.43;;;1.40;;
15526;SDS011;7865;50.918;4.510;2022-12-07T13:56:26;2.20;;;1.50;;
15526;SDS011;7865;50.918;4.510;2022-12-07T14:01:33;5.00;;;1.60;;
15526;SDS011;7865;50.918;4.510;2022-12-07T14:06:35;3.03;;;1.67;;
15526;SDS011;7865;50.918;4.510;2022-12-07T14:11:37;8.70;;;2.67;;
15526;SDS011;7865;50.918;4.510;2022-12-07T14:16:39;3.87;;;1.77;;
15526;SDS011;7865;50.918;4.510;2022-12-07T14:21:41;1.90;;;1.60;;
15526;SDS011;7865;50.918;4.510;2022-12-07T14:26:47;4.33;;;2.80;;
15526;SDS011;7865;50.918;4.510;2022-12-07T14:31:51;7.47;;;3.57;;
15526;SDS011;7865;50.918;4.510;2022-12-07T14:36:53;2.50;;;2.30;;
15526;SDS011;7865;50.918;4.510;2022-12-07T14:41:55;2.93;;;2.73;;
15526;SDS011;7865;50.918;4.510;2022-12-07T14:46:57;3.50;;;2.60;;
15526;SDS011;7865;50.918;4.510;2022-12-07T14:52:21;3.83;;;2.83;;
15526;SDS011;7865;50.918;4.510;2022-12-07T14:57:46;3.63;;;2.47;;
15526;SDS011;7865;50.918;4.510;2022-12-07T15:02:48;5.97;;;2.33;;
15526;SDS011;7865;50.918;4.510;2022-12-07T15:07:50;5.67;;;2.60;;
15526;SDS011;7865;50.918;4.510;2022-12-07T15:12:53;3.03;;;2.33;;
15526;SDS011;7865;50.918;4.510;2022-12-07T15:17:55;4.53;;;3.10;;
15526;SDS011;7865;50.918;4.510;2022-12-07T15:22:58;4.27;;;3.00;;
15526;SDS011;7865;50.918;4.510;2022-12-07T15:27:59;5.33;;;2.90;;
15526;SDS011;7865;50.918;4.510;2022-12-07T15:33:01;9.07;;;3.20;;
15526;SDS011;7865;50.918;4.510;2022-12-07T15:38:03;7.33;;;2.90;;
15526;SDS011;7865;50.918;4.510;2022-12-07T15:43:05;7.40;;;3.03;;
15526;SDS011;7865;50.918;4.510;2022-12-07T15:48:29;7.30;;;3.10;;
15526;SDS011;7865;50.918;4.510;2022-12-07T15:53:31;5.37;;;3.00;;
15526;SDS011;7865;50.918;4.510;2022-12-07T15:58:33;6.67;;;3.13;;
15526;SDS011;7865;50.918;4.510;2022-12-07T16:03:35;7.70;;;3.50;;
15526;SDS011;7865;50.918;4.510;2022-12-07T16:08:41;7.17;;;3.50;;
15526;SDS011;7865;50.918;4.510;2022-12-07T16:13:45;10.77;;;4.57;;
15526;SDS011;7865;50.918;4.510;2022-12-07T16:18:47;5.07;;;3.53;;
15526;SDS011;7865;50.918;4.510;2022-12-07T16:23:49;8.37;;;3.70;;
15526;SDS011;7865;50.918;4.510;2022-12-07T16:28:51;7.63;;;4.47;;
15526;SDS011;7865;50.918;4.510;2022-12-07T16:33:56;4.70;;;3.70;;
15526;SDS011;7865;50.918;4.510;2022-12-07T16:38:59;5.97;;;4.10;;
15526;SDS011;7865;50.918;4.510;2022-12-07T16:44:02;8.30;;;4.00;;
15526;SDS011;7865;50.918;4.510;2022-12-07T16:49:06;7.53;;;3.80;;
15526;SDS011;7865;50.918;4.510;2022-12-07T16:54:12;14.00;;;5.47;;
15526;SDS011;7865;50.918;4.510;2022-12-07T16:59:14;10.27;;;5.07;;
15526;SDS011;7865;50.918;4.510;2022-12-07T17:04:16;12.27;;;6.23;;
15526;SDS011;7865;50.918;4.510;2022-12-07T17:09:18;7.60;;;4.00;;
15526;SDS011;7865;50.918;4.510;2022-12-07T17:14:22;8.57;;;3.80;;
15526;SDS011;7865;50.918;4.510;2022-12-07T17:19:42;6.07;;;3.90;;
15526;SDS011;7865;50.918;4.510;2022-12-07T17:24:45;6.37;;;3.90;;
15526;SDS011;7865;50.918;4.510;2022-12-07T17:29:47;6.27;;;3.67;;
15526;SDS011;7865;50.918;4.510;2022-12-07T17:34:49;7.47;;;4.10;;
15526;SDS011;7865;50.918;4.510;2022-12-07T17:39:51;6.90;;;3.90;;
15526;SDS011;7865;50.918;4.510;2022-12-07T17:44:53;8.43;;;4.70;;
15526;SDS011;7865;50.918;4.510;2022-12-07T17:49:55;6.93;;;4.27;;
15526;SDS011;7865;50.918;4.510;2022-12-07T17:55:03;11.03;;;5.10;;
15526;SDS011;7865;50.918;4.510;2022-12-07T18:00:06;9.63;;;5.07;;
15526;SDS011;7865;50.918;4.510;2022-12-07T18:05:13;8.30;;;5.00;;
15526;SDS011;7865;50.918;4.510;2022-12-07T18:10:15;11.40;;;4.80;;
15526;SDS011;7865;50.918;4.510;2022-12-07T18:15:17;8.87;;;5.27;;
15526;SDS011;7865;50.918;4.510;2022-12-07T18:20:19;9.13;;;5.13;;
15526;SDS011;7865;50.918;4.510;2022-12-07T18:25:21;10.30;;;5.70;;
15526;SDS011;7865;50.918;4.510;2022-12-07T18:30:23;18.57;;;6.73;;
15526;SDS011;7865;50.918;4.510;2022-12-07T18:35:45;13.10;;;5.63;;
15526;SDS011;7865;50.918;4.510;2022-12-07T18:40:48;8.93;;;5.97;;
15526;SDS011;7865;50.918;4.510;2022-12-07T18:45:49;11.73;;;6.57;;
15526;SDS011;7865;50.918;4.510;2022-12-07T18:51:00;13.97;;;5.97;;
15526;SDS011;7865;50.918;4.510;2022-12-07T18:56:09;9.47;;;6.00;;
15526;SDS011;7865;50.918;4.510;2022-12-07T19:01:13;14.90;;;7.33;;
15526;SDS011;7865;50.918;4.510;2022-12-07T19:06:15;9.87;;;7.23;;
15526;SDS011;7865;50.918;4.510;2022-12-07T19:11:21;14.47;;;9.20;;
15526;SDS011;7865;50.918;4.510;2022-12-07T19:16:44;16.83;;;9.97;;
15526;SDS011;7865;50.918;4.510;2022-12-07T19:21:47;18.03;;;9.93;;
15526;SDS011;7865;50.918;4.510;2022-12-07T19:26:52;13.67;;;9.47;;
15526;SDS011;7865;50.918;4.510;2022-12-07T19:31:54;13.03;;;8.50;;
15526;SDS011;7865;50.918;4.510;2022-12-07T19:36:57;11.43;;;8.33;;
15526;SDS011;7865;50.918;4.510;2022-12-07T19:41:59;10.87;;;7.80;;
15526;SDS011;7865;50.918;4.510;2022-12-07T19:47:01;10.17;;;8.00;;
15526;SDS011;7865;50.918;4.510;2022-12-07T19:52:06;14.10;;;8.27;;
15526;SDS011;7865;50.918;4.510;2022-12-07T19:57:09;14.97;;;9.33;;
15526;SDS011;7865;50.918;4.510;2022-12-07T20:02:15;13.93;;;8.43;;
15526;SDS011;7865;50.918;4.510;2022-12-07T20:07:17;12.67;;;8.43;;
15526;SDS011;7865;50.918;4.510;2022-12-07T20:12:19;19.20;;;9.13;;
15526;SDS011;7865;50.918;4.510;2022-12-07T20:17:40;13.53;;;9.27;;
15526;SDS011;7865;50.918;4.510;2022-12-07T20:22:42;16.17;;;9.83;;
15526;SDS011;7865;50.918;4.510;2022-12-07T20:27:43;14.80;;;9.13;;
15526;SDS011;7865;50.918;4.510;2022-12-07T20:32:45;17.93;;;10.43;;
15526;SDS011;7865;50.918;4.510;2022-12-07T20:37:49;13.97;;;8.80;;
15526;SDS011;7865;50.918;4.510;2022-12-07T20:42:52;12.80;;;8.20;;
15526;SDS011;7865;50.918;4.510;2022-12-07T20:47:54;15.57;;;8.53;;
15526;SDS011;7865;50.918;4.510;2022-12-07T20:52:55;12.33;;;6.90;;
15526;SDS011;7865;50.918;4.510;2022-12-07T20:58:01;12.63;;;7.47;;
15526;SDS011;7865;50.918;4.510;2022-12-07T21:03:03;11.40;;;7.33;;
15526;SDS011;7865;50.918;4.510;2022-12-07T21:08:05;11.63;;;7.10;;
15526;SDS011;7865;50.918;4.510;2022-12-07T21:13:07;9.63;;;7.40;;
15526;SDS011;7865;50.918;4.510;2022-12-07T21:18:09;9.37;;;6.43;;
15526;SDS011;7865;50.918;4.510;2022-12-07T21:23:11;10.50;;;5.73;;
15526;SDS011;7865;50.918;4.510;2022-12-07T21:28:12;10.27;;;6.00;;
15526;SDS011;7865;50.918;4.510;2022-12-07T21:33:14;7.03;;;5.57;;
15526;SDS011;7865;50.918;4.510;2022-12-07T21:38:16;9.77;;;6.37;;
15526;SDS011;7865;50.918;4.510;2022-12-07T21:43:18;11.37;;;5.80;;
15526;SDS011;7865;50.918;4.510;2022-12-07T21:48:20;11.50;;;6.10;;
15526;SDS011;7865;50.918;4.510;2022-12-07T21:53:22;11.00;;;5.70;;
15526;SDS011;7865;50.918;4.510;2022-12-07T21:58:24;7.73;;;5.00;;
15526;SDS011;7865;50.918;4.510;2022-12-07T22:03:26;10.13;;;6.10;;
15526;SDS011;7865;50.918;4.510;2022-12-07T22:08:27;8.53;;;4.97;;
15526;SDS011;7865;50.918;4.510;2022-12-07T22:13:29;6.60;;;3.67;;
15526;SDS011;7865;50.918;4.510;2022-12-07T22:18:52;3.37;;;1.87;;
15526;SDS011;7865;50.918;4.510;2022-12-07T22:23:54;3.80;;;2.30;;
15526;SDS011;7865;50.918;4.510;2022-12-07T22:28:56;4.70;;;2.23;;
15526;SDS011;7865;50.918;4.510;2022-12-07T22:33:58;4.23;;;2.17;;
15526;SDS011;7865;50.918;4.510;2022-12-07T22:39:00;3.03;;;2.00;;
15526;SDS011;7865;50.918;4.510;2022-12-07T22:44:03;2.80;;;2.03;;
15526;SDS011;7865;50.918;4.510;2022-12-07T22:49:06;3.90;;;2.80;;
15526;SDS011;7865;50.918;4.510;2022-12-07T22:54:10;5.23;;;3.13;;
15526;SDS011;7865;50.918;4.510;2022-12-07T22:59:16;7.03;;;4.23;;
15526;SDS011;7865;50.918;4.510;2022-12-07T23:04:18;7.93;;;4.50;;
15526;SDS011;7865;50.918;4.510;2022-12-07T23:09:20;7.70;;;5.60;;
15526;SDS011;7865;50.918;4.510;2022-12-07T23:14:23;11.37;;;6.37;;
15526;SDS011;7865;50.918;4.510;2022-12-07T23:19:28;13.23;;;8.47;;
15526;SDS011;7865;50.918;4.510;2022-12-07T23:24:30;19.17;;;8.23;;
15526;SDS011;7865;50.918;4.510;2022-12-07T23:29:32;19.87;;;9.33;;
15526;SDS011;7865;50.918;4.510;2022-12-07T23:34:34;16.70;;;9.93;;
15526;SDS011;7865;50.918;4.510;2022-12-07T23:39:35;17.47;;;10.20;;
15526;SDS011;7865;50.918;4.510;2022-12-07T23:44:37;19.73;;;11.53;;
15526;SDS011;7865;50.918;4.510;2022-12-07T23:49:39;26.03;;;12.33;;
15526;SDS011;7865;50.918;4.510;2022-12-07T23:54:41;29.17;;;14.23;;
15526;SDS011;7865;50.918;4.510;2022-12-07T23:59:43;23.40;;;12.67;;
